Terminal Aerodrome Forecast
Issued by NWS

Home | Current Version | Previous Version | Text Only | Print | Product List | Glossary On
Versions: 1 2 3 4 5 6 7 8 9 10 11 12 13 14 15 16 17 18
000
FTUS44 KEWX 012320
TAFSSF
TAF
KSSF 012320Z 0200/0224 12015KT P6SM VCSH SCT070 SCT200
     FM020200 12012KT P6SM FEW070 SCT200
     FM020600 12003KT P6SM BKN012
     FM021600 13006KT P6SM SCT050=

USA.gov is the U.S. government's official web portal to all federal, state and local government web resources and services.